TimeMST,TemperatureF,Dew PointF,Humidity,Sea Level PressureIn,VisibilityMPH,Wind Direction,Wind SpeedMPH,Gust SpeedMPH,PrecipitationIn,Events,Conditions,WindDirDegrees,DateUTC
12:53 AM,26.1,19.0,75,29.97,10.0,East,3.5,-,N/A,,Clear,80,2012-12-07 07:53:00
1:53 AM,26.1,19.9,78,29.97,10.0,Calm,Calm,-,N/A,,Clear,0,2012-12-07 08:53:00
2:53 AM,25.0,19.9,81,29.99,10.0,ENE,4.6,-,N/A,,Clear,70,2012-12-07 09:53:00
3:53 AM,24.1,19.0,81,29.99,10.0,ENE,3.5,-,N/A,,Partly Cloudy,60,2012-12-07 10:53:00
4:53 AM,27.0,21.0,78,29.98,10.0,East,3.5,-,N/A,,Overcast,90,2012-12-07 11:53:00
5:53 AM,30.0,21.9,72,29.99,10.0,ESE,6.9,-,N/A,,Overcast,110,2012-12-07 12:53:00
6:53 AM,28.9,21.0,72,29.99,10.0,East,8.1,-,N/A,,Partly Cloudy,80,2012-12-07 13:53:00
7:53 AM,30.0,21.9,72,30.04,10.0,Calm,Calm,-,N/A,,Clear,0,2012-12-07 14:53:00
8:53 AM,34.0,23.0,64,30.05,10.0,SE,5.8,-,N/A,,Mostly Cloudy,130,2012-12-07 15:53:00
9:53 AM,39.9,25.0,55,30.04,10.0,Calm,Calm,-,N/A,,Clear,0,2012-12-07 16:53:00
10:53 AM,45.0,26.1,48,30.01,10.0,West,5.8,-,N/A,,Clear,260,2012-12-07 17:53:00
11:53 AM,48.9,28.0,44,29.97,10.0,WSW,9.2,-,N/A,,Clear,250,2012-12-07 18:53:00
12:53 PM,52.0,26.1,37,29.95,10.0,West,10.4,-,N/A,,Clear,270,2012-12-07 19:53:00
1:53 PM,54.0,25.0,33,29.92,10.0,West,13.8,-,N/A,,Clear,270,2012-12-07 20:53:00
2:53 PM,53.1,24.1,32,29.92,10.0,West,18.4,24.2,N/A,,Clear,280,2012-12-07 21:53:00
3:53 PM,53.1,24.1,32,29.93,10.0,WNW,16.1,20.7,N/A,,Clear,290,2012-12-07 22:53:00
4:53 PM,50.0,24.1,36,29.94,10.0,WNW,11.5,-,N/A,,Clear,290,2012-12-07 23:53:00
6:53 PM,44.1,24.1,45,29.97,10.0,WNW,8.1,-,N/A,,Clear,290,2012-12-08 01:53:00
7:53 PM,41.0,24.1,51,29.99,10.0,South,5.8,-,N/A,,Clear,190,2012-12-08 02:53:00
8:53 PM,39.9,24.1,53,29.99,10.0,WSW,4.6,-,N/A,,Clear,240,2012-12-08 03:53:00
9:53 PM,36.0,23.0,59,29.99,10.0,Calm,Calm,-,N/A,,Clear,0,2012-12-08 04:53:00
10:53 PM,30.0,21.0,69,29.98,10.0,Calm,Calm,-,N/A,,Clear,0,2012-12-08 05:53:00
11:53 PM,30.0,21.0,69,29.97,10.0,North,4.6,-,N/A,,Clear,350,2012-12-08 06:53:00